Time;durP1;ratioP1;P1;durP2;ratioP2;P2;SDS_P1;SDS_P2;PMS_P1;PMS_P2;Temp;Humidity;BMP_temperature;BMP_pressure;BME280_temperature;BME280_humidity;BME280_pressure;Samples;Min_cycle;Max_cycle;Signal;HPM_P1;HPM_P2
2022/12/15 00:40:29;;;;;;;7.68;5.05;;;;;;;;;;10404860;28;20033;-60
2022/12/15 00:50:52;;;;;;;7.03;5.13;;;;;;;;;;10405635;28;20030;-59
2022/12/15 01:22:28;;;;;;;6.88;4.82;;;;;;;;;;10411802;28;20025;-59
2022/12/15 01:27:29;;;;;;;5.88;4.57;;;;;;;;;;10412570;28;20046;-59
2022/12/15 01:32:29;;;;;;;7.80;4.78;;;;;;;;;;10410825;28;20021;-59
2022/12/15 01:37:30;;;;;;;7.28;4.78;;;;;;;;;;10411202;28;20026;-59
2022/12/15 01:42:31;;;;;;;5.93;4.50;;;;;;;;;;10412050;28;20044;-59
2022/12/15 01:47:32;;;;;;;6.22;4.70;;;;;;;;;;10411843;28;20116;-59
2022/12/15 01:52:32;;;;;;;9.85;5.28;;;;;;;;;;10410495;28;20061;-60
2022/12/15 01:57:35;;;;;;;5.65;4.90;;;;;;;;;;10409745;28;20025;-60
2022/12/15 02:02:37;;;;;;;7.38;5.00;;;;;;;;;;10409636;28;20030;-62
2022/12/15 02:07:38;;;;;;;6.70;4.90;;;;;;;;;;10409852;28;20022;-60
2022/12/15 02:13:22;;;;;;;5.80;5.00;;;;;;;;;;10397652;28;20033;-60
2022/12/15 02:18:41;;;;;;;6.45;4.43;;;;;;;;;;10398802;28;20034;-60
2022/12/15 02:23:56;;;;;;;;;;;;;;;;;;10409838;28;20045;-60
2022/12/15 02:29:30;;;;;;;7.57;4.97;;;;;;;;;;10409381;28;20277;-59
2022/12/15 02:34:40;;;;;;;6.35;4.68;;;;;;;;;;10406542;28;20029;-59
2022/12/15 02:39:41;;;;;;;7.50;4.75;;;;;;;;;;10409811;28;20025;-61
2022/12/15 02:44:52;;;;;;;5.88;4.70;;;;;;;;;;10409510;28;20440;-61
2022/12/15 02:50:32;;;;;;;5.97;4.50;;;;;;;;;;10408439;28;20469;-61
2022/12/15 02:56:17;;;;;;;5.57;4.43;;;;;;;;;;10408641;28;20030;-60
2022/12/15 03:01:27;;;;;;;6.57;4.95;;;;;;;;;;10405968;28;20057;-59
2022/12/15 03:06:28;;;;;;;6.97;4.70;;;;;;;;;;10395528;28;20025;-60
2022/12/15 03:11:28;;;;;;;12.63;4.65;;;;;;;;;;10402539;28;20032;-60
2022/12/15 03:16:29;;;;;;;5.60;4.40;;;;;;;;;;10408379;28;20021;-60
2022/12/15 03:21:29;;;;;;;6.32;4.57;;;;;;;;;;10406846;28;20025;-60
2022/12/15 03:26:30;;;;;;;6.35;4.45;;;;;;;;;;10407489;28;20050;-60
2022/12/15 03:31:31;;;;;;;6.82;4.57;;;;;;;;;;10407876;28;20412;-61
2022/12/15 03:36:31;;;;;;;5.53;4.60;;;;;;;;;;10407378;28;20033;-60
2022/12/15 03:41:32;;;;;;;6.85;4.88;;;;;;;;;;10407291;28;20025;-60
2022/12/15 03:46:32;;;;;;;6.22;4.75;;;;;;;;;;10406537;28;20362;-60
2022/12/15 03:51:33;;;;;;;5.40;4.72;;;;;;;;;;10407135;28;20029;-60
2022/12/15 03:56:34;;;;;;;5.75;4.25;;;;;;;;;;10405688;28;20037;-60
2022/12/15 04:01:35;;;;;;;7.22;5.32;;;;;;;;;;10407408;28;20029;-60
2022/12/15 04:06:36;;;;;;;7.35;4.68;;;;;;;;;;10406682;28;20078;-60
2022/12/15 04:11:36;;;;;;;7.53;4.55;;;;;;;;;;10405846;28;20527;-60
2022/12/15 04:16:37;;;;;;;6.07;4.35;;;;;;;;;;10406120;28;20021;-60
2022/12/15 04:21:37;;;;;;;5.07;4.15;;;;;;;;;;10406530;28;20107;-60
2022/12/15 05:35:50;;;;;;;;;;;;;;;;;;10412969;28;20037;-60
2022/12/15 05:40:50;;;;;;;7.00;4.63;;;;;;;;;;10411504;28;20276;-60
2022/12/15 05:45:51;;;;;;;6.88;4.30;;;;;;;;;;10411497;28;20503;-59
2022/12/15 05:50:51;;;;;;;5.85;4.38;;;;;;;;;;10411677;28;20021;-59
2022/12/15 05:55:52;;;;;;;6.35;4.75;;;;;;;;;;10410368;28;20029;-60
2022/12/15 06:00:52;;;;;;;7.80;3.97;;;;;;;;;;10409458;28;20021;-60
2022/12/15 06:05:53;;;;;;;5.32;4.30;;;;;;;;;;10408955;28;20169;-60
2022/12/15 06:10:54;;;;;;;6.20;4.70;;;;;;;;;;10409638;28;20033;-60
2022/12/15 06:16:00;;;;;;;5.57;4.50;;;;;;;;;;10411115;28;20057;-58
2022/12/15 06:21:07;;;;;;;5.65;4.90;;;;;;;;;;10404916;28;20384;-55
2022/12/15 06:26:25;;;;;;;8.38;5.50;;;;;;;;;;10402671;28;20413;-58
2022/12/15 06:31:27;;;;;;;13.37;5.60;;;;;;;;;;10404865;28;20094;-58
2022/12/15 06:36:28;;;;;;;8.05;5.82;;;;;;;;;;10396215;28;20076;-59
2022/12/15 06:41:29;;;;;;;8.43;6.40;;;;;;;;;;10398526;28;20433;-58
2022/12/15 06:46:32;;;;;;;8.65;5.97;;;;;;;;;;10405835;28;20373;-58
2022/12/15 06:51:32;;;;;;;9.27;6.22;;;;;;;;;;10408159;28;20481;-58
2022/12/15 06:56:41;;;;;;;18.60;7.30;;;;;;;;;;10403003;28;20030;-60
2022/12/15 07:01:41;;;;;;;9.65;6.47;;;;;;;;;;10391291;28;20038;-64
2022/12/15 07:06:42;;;;;;;12.00;6.18;;;;;;;;;;10400286;28;20392;-60
2022/12/15 07:11:44;;;;;;;10.38;6.32;;;;;;;;;;10406094;28;20071;-60
2022/12/15 07:16:44;;;;;;;12.32;6.45;;;;;;;;;;10402614;28;20419;-59
2022/12/15 07:21:45;;;;;;;13.18;6.13;;;;;;;;;;10386805;28;20025;-60
2022/12/15 07:26:46;;;;;;;17.02;6.45;;;;;;;;;;10408290;28;20038;-60
2022/12/15 07:31:46;;;;;;;10.30;5.82;;;;;;;;;;10408324;28;20032;-60
2022/12/15 07:36:47;;;;;;;12.90;5.85;;;;;;;;;;10408513;28;20031;-59
2022/12/15 07:41:47;;;;;;;23.45;5.80;;;;;;;;;;10408138;28;20040;-60
2022/12/15 07:46:48;;;;;;;15.38;6.32;;;;;;;;;;10377897;28;20029;-58
2022/12/15 07:51:48;;;;;;;12.15;5.70;;;;;;;;;;10374888;28;20441;-60
2022/12/15 07:56:49;;;;;;;11.70;6.68;;;;;;;;;;10372972;28;20117;-59
2022/12/15 08:01:50;;;;;;;14.65;6.43;;;;;;;;;;10375480;28;21156;-60
2022/12/15 08:06:53;;;;;;;10.07;5.57;;;;;;;;;;10398479;28;20034;-60
2022/12/15 08:11:53;;;;;;;14.05;6.70;;;;;;;;;;10402080;28;20083;-60
2022/12/15 08:16:54;;;;;;;9.25;5.78;;;;;;;;;;10388862;28;20538;-60
2022/12/15 08:21:55;;;;;;;8.07;5.55;;;;;;;;;;10394820;28;20393;-66
2022/12/15 08:26:55;;;;;;;10.30;5.18;;;;;;;;;;10400534;28;20443;-60
2022/12/15 08:31:56;;;;;;;10.93;5.80;;;;;;;;;;10407319;28;20091;-60
2022/12/15 08:36:57;;;;;;;12.60;5.05;;;;;;;;;;10406931;28;20025;-63
2022/12/15 08:41:57;;;;;;;9.75;5.60;;;;;;;;;;10400696;28;20032;-62
2022/12/15 08:46:58;;;;;;;9.25;5.65;;;;;;;;;;10393429;28;20051;-60
2022/12/15 08:51:58;;;;;;;17.73;6.00;;;;;;;;;;10397080;28;20481;-64
2022/12/15 08:56:59;;;;;;;11.90;6.00;;;;;;;;;;10406036;28;20036;-60
2022/12/15 09:02:00;;;;;;;14.80;5.57;;;;;;;;;;10405665;28;20030;-60
2022/12/15 09:07:00;;;;;;;15.18;5.80;;;;;;;;;;10394114;28;20581;-60
2022/12/15 09:12:01;;;;;;;15.43;6.05;;;;;;;;;;10386431;28;20040;-63
2022/12/15 09:17:02;;;;;;;14.30;6.07;;;;;;;;;;10404268;28;20026;-60
2022/12/15 09:22:04;;;;;;;13.52;6.40;;;;;;;;;;10413065;28;20025;-60
2022/12/15 09:27:04;;;;;;;11.10;5.80;;;;;;;;;;10413091;28;20129;-60
2022/12/15 09:32:06;;;;;;;10.10;5.70;;;;;;;;;;10413045;28;20389;-60
2022/12/15 09:37:06;;;;;;;10.85;5.65;;;;;;;;;;10413210;28;20112;-60
2022/12/15 09:42:27;;;;;;;7.82;5.43;;;;;;;;;;10413107;28;20025;-60
2022/12/15 09:47:56;;;;;;;12.43;5.75;;;;;;;;;;10412846;28;20256;-59
2022/12/15 09:52:57;;;;;;;10.95;5.68;;;;;;;;;;10408892;28;20478;-60
2022/12/15 09:58:32;;;;;;;8.38;5.43;;;;;;;;;;10412187;28;20396;-59
2022/12/15 10:04:17;;;;;;;9.07;5.90;;;;;;;;;;10410668;28;20125;-60
2022/12/15 10:09:28;;;;;;;8.40;5.43;;;;;;;;;;10408728;28;20024;-60
2022/12/15 10:15:12;;;;;;;12.63;5.10;;;;;;;;;;10409362;28;20480;-60
2022/12/15 10:20:25;;;;;;;10.57;5.22;;;;;;;;;;10311728;28;20566;-60
2022/12/15 10:25:30;;;;;;;11.52;6.07;;;;;;;;;;10322591;28;20038;-58
2022/12/15 10:30:31;;;;;;;7.78;5.68;;;;;;;;;;10321203;28;20289;-59
2022/12/15 10:35:35;;;;;;;11.35;5.68;;;;;;;;;;10306672;28;20492;-63
2022/12/15 10:40:59;;;;;;;9.48;6.03;;;;;;;;;;10321952;28;20018;-60
2022/12/15 10:46:18;;;;;;;9.68;5.65;;;;;;;;;;10306376;28;20099;-63
2022/12/15 10:51:43;;;;;;;8.88;5.40;;;;;;;;;;10392992;28;20038;-59
2022/12/15 10:56:58;;;;;;;14.50;5.75;;;;;;;;;;10407471;28;20365;-60
2022/12/15 11:02:32;;;;;;;7.60;5.70;;;;;;;;;;10409512;28;20026;-60
2022/12/15 11:07:45;;;;;;;7.47;5.43;;;;;;;;;;10408801;28;20026;-60
2022/12/15 11:13:13;;;;;;;11.57;5.65;;;;;;;;;;10408560;28;20125;-60
2022/12/15 11:18:35;;;;;;;7.77;5.33;;;;;;;;;;10408556;28;20094;-60
2022/12/15 11:23:51;;;;;;;11.57;5.53;;;;;;;;;;10407858;28;20017;-60
2022/12/15 11:29:00;;;;;;;6.93;5.25;;;;;;;;;;10408888;28;20072;-59
2022/12/15 11:34:01;;;;;;;7.45;4.82;;;;;;;;;;10406984;28;20048;-61
2022/12/15 11:39:24;;;;;;;8.25;5.78;;;;;;;;;;10401441;28;20037;-60
2022/12/15 11:45:15;;;;;;;9.15;5.20;;;;;;;;;;10406483;28;20033;-60
2022/12/15 11:50:22;;;;;;;9.77;5.55;;;;;;;;;;10394153;28;20263;-60
2022/12/15 11:55:51;;;;;;;15.77;5.55;;;;;;;;;;10403463;28;20060;-59
2022/12/15 12:01:34;;;;;;;7.88;5.10;;;;;;;;;;10399290;28;20417;-60
2022/12/15 12:07:10;;;;;;;16.73;5.70;;;;;;;;;;10369511;28;20030;-60
2022/12/15 12:12:32;;;;;;;8.70;5.30;;;;;;;;;;10379536;28;20069;-59
2022/12/15 12:17:43;;;;;;;10.75;5.10;;;;;;;;;;10407187;28;20055;-60
2022/12/15 12:23:08;;;;;;;7.07;5.15;;;;;;;;;;10395898;28;20469;-60
2022/12/15 12:28:21;;;;;;;8.90;5.43;;;;;;;;;;10402667;28;20098;-60
2022/12/15 12:33:44;;;;;;;10.15;5.10;;;;;;;;;;10411736;28;20068;-60
2022/12/15 12:38:49;;;;;;;8.15;5.50;;;;;;;;;;10399581;28;20025;-60
2022/12/15 12:44:14;;;;;;;8.10;5.55;;;;;;;;;;10402793;28;20052;-60
2022/12/15 12:49:49;;;;;;;7.07;4.80;;;;;;;;;;10403631;28;20033;-62
2022/12/15 12:55:03;;;;;;;12.88;4.80;;;;;;;;;;10423158;28;20040;-61
2022/12/15 13:00:06;;;;;;;10.43;5.13;;;;;;;;;;10381985;28;20119;-60
2022/12/15 13:05:36;;;;;;;8.45;5.10;;;;;;;;;;10393278;28;20157;-60
2022/12/15 13:10:43;;;;;;;7.40;4.90;;;;;;;;;;10381487;28;20040;-60
2022/12/15 13:15:47;;;;;;;8.07;4.90;;;;;;;;;;10383406;28;20037;-63
2022/12/15 13:20:56;;;;;;;7.15;4.47;;;;;;;;;;10404656;28;20018;-60
2022/12/15 13:25:56;;;;;;;8.63;5.30;;;;;;;;;;10400741;28;20053;-61
2022/12/15 13:31:15;;;;;;;7.28;4.75;;;;;;;;;;10394676;28;20034;-60
2022/12/15 13:36:40;;;;;;;6.82;4.75;;;;;;;;;;10388460;28;20509;-60
2022/12/15 13:42:03;;;;;;;10.20;5.18;;;;;;;;;;10382033;28;20169;-60
2022/12/15 13:47:17;;;;;;;10.43;5.53;;;;;;;;;;10384513;28;20195;-60
2022/12/15 13:52:31;;;;;;;7.65;4.82;;;;;;;;;;10398729;28;20037;-63
2022/12/15 13:57:48;;;;;;;6.63;5.03;;;;;;;;;;10390285;28;20060;-60
2022/12/15 14:02:49;;;;;;;6.93;4.25;;;;;;;;;;10403219;28;20025;-61
2022/12/15 14:07:52;;;;;;;6.03;4.63;;;;;;;;;;10383849;28;20034;-60
2022/12/15 14:12:59;;;;;;;8.05;4.70;;;;;;;;;;10375643;28;20035;-60
2022/12/15 14:18:01;;;;;;;7.05;5.00;;;;;;;;;;10403899;28;20586;-60
2022/12/15 14:23:18;;;;;;;5.82;4.32;;;;;;;;;;10411152;28;20034;-61
2022/12/15 14:28:31;;;;;;;10.43;4.63;;;;;;;;;;10400387;28;20041;-66
2022/12/15 14:33:36;;;;;;;6.35;4.68;;;;;;;;;;10398042;28;20033;-64
2022/12/15 14:39:05;;;;;;;6.65;4.75;;;;;;;;;;10395375;28;20155;-64
2022/12/15 14:44:17;;;;;;;10.33;5.10;;;;;;;;;;10406190;28;20386;-64
2022/12/15 14:49:28;;;;;;;7.53;4.57;;;;;;;;;;10406580;28;20025;-64
2022/12/15 14:54:37;;;;;;;10.27;4.78;;;;;;;;;;10410583;28;20517;-65
2022/12/15 14:59:40;;;;;;;;;;;;;;;;;;10404401;28;20348;-66
2022/12/15 15:04:40;;;;;;;6.32;3.92;;;;;;;;;;10402831;28;19945;-67
2022/12/15 15:09:44;;;;;;;7.03;4.35;;;;;;;;;;10404870;28;20025;-66
2022/12/15 15:15:07;;;;;;;6.10;4.70;;;;;;;;;;10404501;28;20041;-65
2022/12/15 15:20:30;;;;;;;6.32;4.53;;;;;;;;;;10399837;28;20076;-66
2022/12/15 15:25:41;;;;;;;6.28;4.05;;;;;;;;;;10415925;23;20049;-59
2022/12/15 15:31:20;;;;;;;10.10;4.23;;;;;;;;;;10406938;28;20025;-60
2022/12/15 15:36:28;;;;;;;6.25;4.25;;;;;;;;;;10393079;28;20036;-59
2022/12/15 15:41:31;;;;;;;6.97;4.22;;;;;;;;;;10380199;28;20025;-59
2022/12/15 15:46:34;;;;;;;7.60;4.40;;;;;;;;;;10404363;28;20033;-60
2022/12/15 15:51:36;;;;;;;9.10;4.47;;;;;;;;;;10404233;28;20135;-59
2022/12/15 15:56:37;;;;;;;9.27;4.28;;;;;;;;;;10402271;28;20647;-59
2022/12/15 16:01:40;;;;;;;5.28;4.13;;;;;;;;;;10393112;28;20412;-59
2022/12/15 16:06:40;;;;;;;6.50;4.60;;;;;;;;;;10382121;28;20030;-59
2022/12/15 16:11:41;;;;;;;5.30;4.32;;;;;;;;;;10367029;28;20022;-59
2022/12/15 16:16:43;;;;;;;6.25;4.05;;;;;;;;;;10378368;28;20436;-59
2022/12/15 16:21:44;;;;;;;6.32;4.28;;;;;;;;;;10358425;28;20037;-59
2022/12/15 16:26:49;;;;;;;10.00;4.30;;;;;;;;;;10349274;28;20069;-59
2022/12/15 16:31:49;;;;;;;11.20;4.55;;;;;;;;;;10379323;28;20034;-59
2022/12/15 16:36:50;;;;;;;13.30;4.90;;;;;;;;;;10374742;28;20509;-60
2022/12/15 16:41:53;;;;;;;10.23;4.25;;;;;;;;;;10380188;28;20526;-59
2022/12/15 16:46:53;;;;;;;18.88;4.63;;;;;;;;;;10377641;28;20042;-55
2022/12/15 16:51:54;;;;;;;23.20;4.78;;;;;;;;;;10392070;28;20436;-58
2022/12/15 16:56:57;;;;;;;21.30;4.85;;;;;;;;;;10376558;28;20136;-59
2022/12/15 17:01:57;;;;;;;18.70;4.57;;;;;;;;;;10383022;28;20478;-60
2022/12/15 17:06:58;;;;;;;12.40;3.78;;;;;;;;;;10357847;28;20030;-60
2022/12/15 17:11:59;;;;;;;10.88;4.38;;;;;;;;;;10357327;28;20029;-60
2022/12/15 17:17:01;;;;;;;9.18;4.30;;;;;;;;;;10360146;28;20038;-59
2022/12/15 17:22:01;;;;;;;25.33;4.85;;;;;;;;;;10359480;28;20022;-59
2022/12/15 17:27:03;;;;;;;11.75;4.03;;;;;;;;;;10340500;28;20049;-59
2022/12/15 17:32:08;;;;;;;16.17;4.78;;;;;;;;;;10363502;28;20133;-60
2022/12/15 17:37:12;;;;;;;11.88;4.25;;;;;;;;;;10357927;28;20116;-59
2022/12/15 17:42:19;;;;;;;10.10;4.55;;;;;;;;;;10370269;28;20022;-60
2022/12/15 17:47:19;;;;;;;10.73;3.50;;;;;;;;;;10367128;28;20034;-60
2022/12/15 17:52:33;;;;;;;9.90;4.15;;;;;;;;;;10376246;28;20366;-60
2022/12/15 17:57:33;;;;;;;8.77;4.05;;;;;;;;;;10360883;28;20029;-60
2022/12/15 18:02:34;;;;;;;10.27;4.00;;;;;;;;;;10369062;28;20021;-59
2022/12/15 18:07:35;;;;;;;8.43;4.80;;;;;;;;;;10370695;28;20045;-59
2022/12/15 18:12:36;;;;;;;5.30;3.60;;;;;;;;;;10371516;28;20045;-59
2022/12/15 18:17:36;;;;;;;9.13;4.40;;;;;;;;;;10373671;28;20041;-59
2022/12/15 18:22:37;;;;;;;9.43;4.68;;;;;;;;;;10376011;28;20030;-59
2022/12/15 18:27:37;;;;;;;10.27;4.03;;;;;;;;;;10377257;28;20045;-59
2022/12/15 18:32:40;;;;;;;7.03;3.75;;;;;;;;;;10374358;28;20316;-59
2022/12/15 18:37:42;;;;;;;7.88;4.13;;;;;;;;;;10364558;28;20054;-59
2022/12/15 18:42:45;;;;;;;8.57;4.75;;;;;;;;;;10368218;28;20025;-59
2022/12/15 18:47:47;;;;;;;12.57;6.20;;;;;;;;;;10383283;28;20026;-60
2022/12/15 18:52:57;;;;;;;12.77;6.82;;;;;;;;;;10378683;28;20036;-60
2022/12/15 18:58:00;;;;;;;12.18;6.88;;;;;;;;;;10365527;28;20040;-59
2022/12/15 19:03:01;;;;;;;15.10;7.00;;;;;;;;;;10379604;28;20444;-59
2022/12/15 19:08:12;;;;;;;17.85;7.97;;;;;;;;;;10364122;28;20081;-59
2022/12/15 19:13:15;;;;;;;12.85;7.93;;;;;;;;;;10360615;28;20398;-59
2022/12/15 19:23:38;;;;;;;12.88;7.45;;;;;;;;;;10369805;28;20030;-59
2022/12/15 19:28:39;;;;;;;12.38;6.68;;;;;;;;;;10372520;28;20050;-59
2022/12/15 19:33:40;;;;;;;11.52;6.53;;;;;;;;;;10377257;28;20381;-60
2022/12/15 19:38:41;;;;;;;13.43;6.63;;;;;;;;;;10374782;28;20041;-59
2022/12/15 19:43:42;;;;;;;10.25;6.15;;;;;;;;;;10363546;28;20030;-59
2022/12/15 19:48:43;;;;;;;9.23;5.05;;;;;;;;;;10361000;28;20117;-59
2022/12/15 19:53:48;;;;;;;9.35;4.95;;;;;;;;;;10368592;28;20030;-59
2022/12/15 19:58:49;;;;;;;9.63;5.07;;;;;;;;;;10371174;28;20034;-59
2022/12/15 20:03:52;;;;;;;8.30;4.65;;;;;;;;;;10370740;28;20492;-59
2022/12/15 20:08:55;;;;;;;10.10;4.45;;;;;;;;;;10369805;28;20032;-60
2022/12/15 20:13:56;;;;;;;8.68;4.72;;;;;;;;;;10369920;28;20454;-59
2022/12/15 20:18:56;;;;;;;15.15;4.40;;;;;;;;;;10370029;28;20014;-59
2022/12/15 20:24:04;;;;;;;7.55;3.88;;;;;;;;;;10364756;28;20025;-59
2022/12/15 20:29:24;;;;;;;8.95;4.53;;;;;;;;;;10366185;28;20118;-59
2022/12/15 20:34:25;;;;;;;18.50;4.93;;;;;;;;;;10358177;28;20720;-60
2022/12/15 20:39:29;;;;;;;15.38;5.38;;;;;;;;;;10372839;28;20025;-60
2022/12/15 20:44:30;;;;;;;11.35;4.47;;;;;;;;;;10364277;28;20546;-60
2022/12/15 20:49:30;;;;;;;6.85;3.95;;;;;;;;;;10369788;28;20034;-60
2022/12/15 20:54:31;;;;;;;7.85;3.67;;;;;;;;;;10363033;28;20033;-60
2022/12/15 20:59:31;;;;;;;7.85;4.10;;;;;;;;;;10365670;28;20045;-60
2022/12/15 21:04:32;;;;;;;4.90;3.33;;;;;;;;;;10348843;28;20037;-60
2022/12/15 21:09:33;;;;;;;10.65;3.95;;;;;;;;;;10352597;28;20022;-60
2022/12/15 21:14:33;;;;;;;9.23;3.50;;;;;;;;;;10362654;28;20030;-60
2022/12/15 21:19:34;;;;;;;9.93;3.83;;;;;;;;;;10356262;28;20041;-60
2022/12/15 21:24:34;;;;;;;6.25;3.85;;;;;;;;;;10363623;28;20064;-60
2022/12/15 21:29:35;;;;;;;7.63;3.55;;;;;;;;;;10377987;28;20053;-60
2022/12/15 21:34:36;;;;;;;9.48;3.58;;;;;;;;;;10378818;28;20029;-60
2022/12/15 21:39:36;;;;;;;5.63;3.50;;;;;;;;;;10374136;28;20458;-60
2022/12/15 21:44:37;;;;;;;14.65;3.95;;;;;;;;;;10374231;28;20521;-60
2022/12/15 21:49:37;;;;;;;24.63;4.45;;;;;;;;;;10353816;28;20030;-60
2022/12/15 21:54:38;;;;;;;16.10;5.15;;;;;;;;;;10372937;28;20065;-60
2022/12/15 21:59:39;;;;;;;11.02;4.05;;;;;;;;;;10378162;28;20030;-60
2022/12/15 22:04:40;;;;;;;6.20;3.28;;;;;;;;;;10374439;28;20169;-60
2022/12/15 22:09:41;;;;;;;8.15;4.07;;;;;;;;;;10360509;28;20034;-58
2022/12/15 22:14:41;;;;;;;9.05;3.40;;;;;;;;;;10351969;28;20033;-61
2022/12/15 22:19:42;;;;;;;17.25;4.05;;;;;;;;;;10362672;28;20370;-59
2022/12/15 22:24:43;;;;;;;12.65;4.00;;;;;;;;;;10371242;28;20152;-60
2022/12/15 22:29:44;;;;;;;8.68;3.90;;;;;;;;;;10358888;28;20402;-60
2022/12/15 22:34:45;;;;;;;10.55;3.50;;;;;;;;;;10363068;28;20088;-60
2022/12/15 22:39:45;;;;;;;7.40;3.35;;;;;;;;;;10362302;28;20084;-60
2022/12/15 22:44:46;;;;;;;4.53;3.10;;;;;;;;;;10365887;28;20041;-60
2022/12/15 22:49:46;;;;;;;6.65;3.30;;;;;;;;;;10362752;28;20026;-60
2022/12/15 22:54:47;;;;;;;10.20;3.30;;;;;;;;;;10371298;28;20034;-60
2022/12/15 23:00:09;;;;;;;11.25;3.45;;;;;;;;;;10361820;28;20026;-61
2022/12/15 23:05:14;;;;;;;8.52;3.03;;;;;;;;;;10369389;28;20052;-60
2022/12/15 23:21:09;;;;;;;7.15;3.10;;;;;;;;;;10351519;28;20061;-60
2022/12/15 23:26:11;;;;;;;9.88;3.13;;;;;;;;;;10359485;28;20092;-60
2022/12/15 23:31:12;;;;;;;12.77;3.40;;;;;;;;;;10354721;28;20560;-59
2022/12/15 23:36:13;;;;;;;9.10;2.88;;;;;;;;;;10352953;28;20472;-59
2022/12/15 23:41:16;;;;;;;6.40;3.47;;;;;;;;;;10371590;28;20029;-59
2022/12/15 23:46:17;;;;;;;7.38;3.15;;;;;;;;;;10373744;28;20032;-60
2022/12/15 23:51:19;;;;;;;6.35;2.80;;;;;;;;;;10373798;28;20163;-60
2022/12/15 23:56:23;;;;;;;9.65;3.10;;;;;;;;;;10377167;28;20116;-61
